createdAt,value
2017-12-12T00:01:56.860Z,12.15
2017-12-12T00:04:24.348Z,12.19
2017-12-12T00:06:51.802Z,12.22
2017-12-12T00:09:19.255Z,12.31
2017-12-12T00:11:46.726Z,12.33
2017-12-12T00:14:14.333Z,12.36
2017-12-12T00:16:41.852Z,12.31
2017-12-12T00:19:09.336Z,12.29
2017-12-12T00:21:36.795Z,12.30
2017-12-12T00:24:04.343Z,12.27
2017-12-12T00:26:31.867Z,12.32
2017-12-12T00:28:59.307Z,12.33
2017-12-12T00:31:26.787Z,12.24
2017-12-12T00:33:54.235Z,12.27
2017-12-12T00:36:21.711Z,12.28
2017-12-12T00:38:49.169Z,12.28
2017-12-12T00:41:16.611Z,12.26
2017-12-12T00:43:44.081Z,12.31
2017-12-12T00:46:11.575Z,12.29
2017-12-12T00:48:39.039Z,12.26
2017-12-12T00:51:06.507Z,12.27
2017-12-12T00:53:33.947Z,12.34
2017-12-12T00:56:01.466Z,12.31
2017-12-12T00:58:28.979Z,12.37
2017-12-12T01:00:56.480Z,12.32
2017-12-12T01:03:23.934Z,12.34
2017-12-12T01:05:51.409Z,12.31
2017-12-12T01:08:18.879Z,12.30
2017-12-12T01:10:46.326Z,12.24
2017-12-12T01:13:13.858Z,12.30
2017-12-12T01:15:41.305Z,12.23
2017-12-12T01:18:08.753Z,12.24
2017-12-12T01:20:36.243Z,12.31
2017-12-12T01:23:03.727Z,12.27
2017-12-12T01:25:31.172Z,12.24
2017-12-12T01:27:58.624Z,12.29
2017-12-12T01:30:26.180Z,12.31
2017-12-12T01:32:53.654Z,12.31
2017-12-12T01:35:21.092Z,12.43
2017-12-12T01:37:48.560Z,12.36
2017-12-12T01:40:16.056Z,12.40
2017-12-12T01:42:43.535Z,12.47
2017-12-12T01:45:11.001Z,12.47
2017-12-12T01:47:38.476Z,12.49
2017-12-12T01:50:05.916Z,12.57
2017-12-12T01:52:33.409Z,12.49
2017-12-12T01:55:01.816Z,12.52
2017-12-12T01:57:29.272Z,12.64
2017-12-12T01:59:56.747Z,12.67
2017-12-12T02:02:24.197Z,12.60
2017-12-12T02:04:51.652Z,12.65
2017-12-12T02:07:19.150Z,12.70
2017-12-12T02:09:46.627Z,12.64
2017-12-12T02:12:14.104Z,12.57
2017-12-12T02:14:41.552Z,12.54
2017-12-12T02:17:09.012Z,12.51
2017-12-12T02:19:36.501Z,12.53
2017-12-12T02:22:03.979Z,12.59
2017-12-12T02:24:31.422Z,12.57
2017-12-12T02:26:59.518Z,12.52
2017-12-12T02:29:26.969Z,12.59
2017-12-12T02:31:54.848Z,12.68
2017-12-12T02:34:22.300Z,12.60
2017-12-12T02:36:49.791Z,12.57
2017-12-12T02:39:17.308Z,12.54
2017-12-12T02:41:44.784Z,12.44
2017-12-12T02:44:12.264Z,12.33
2017-12-12T02:46:39.789Z,12.13
2017-12-12T02:49:07.272Z,12.05
2017-12-12T02:51:34.771Z,12.05
2017-12-12T02:54:02.299Z,11.92
2017-12-12T02:56:30.179Z,11.91
2017-12-12T02:58:57.697Z,11.86
2017-12-12T03:01:25.155Z,11.75
2017-12-12T03:03:52.601Z,11.68
2017-12-12T03:06:20.071Z,11.61
2017-12-12T03:08:47.533Z,11.62
2017-12-12T03:11:14.983Z,11.62
2017-12-12T03:13:42.435Z,11.59
2017-12-12T03:16:09.977Z,11.56
2017-12-12T03:18:37.449Z,11.44
2017-12-12T03:21:04.907Z,11.29
2017-12-12T03:23:32.402Z,11.26
2017-12-12T03:25:59.852Z,11.25
2017-12-12T03:28:27.335Z,11.11
2017-12-12T03:30:54.833Z,10.94
2017-12-12T03:33:22.280Z,10.91
2017-12-12T03:35:49.783Z,10.77
2017-12-12T03:38:17.319Z,10.74
2017-12-12T03:40:44.819Z,10.70
2017-12-12T03:43:12.277Z,10.62
2017-12-12T03:45:39.759Z,10.65
2017-12-12T03:48:07.227Z,10.65
2017-12-12T03:50:34.706Z,10.65
2017-12-12T03:53:02.199Z,10.60
2017-12-12T03:55:29.724Z,10.56
2017-12-12T03:57:57.192Z,10.48
2017-12-12T04:00:25.265Z,10.47
2017-12-12T04:02:52.725Z,10.47
2017-12-12T04:05:20.192Z,10.39
2017-12-12T04:07:47.679Z,10.32
2017-12-12T04:10:15.175Z,10.31
2017-12-12T04:12:44.108Z,10.20
2017-12-12T04:15:12.413Z,10.19
2017-12-12T04:17:39.876Z,10.19
2017-12-12T04:20:07.373Z,10.15
2017-12-12T04:22:34.836Z,10.14
2017-12-12T04:25:02.356Z,10.17
2017-12-12T04:27:29.824Z,10.14
2017-12-12T04:29:57.292Z,10.14
2017-12-12T04:32:24.771Z,10.12
2017-12-12T04:34:52.235Z,10.07
2017-12-12T04:37:19.739Z,10.10
2017-12-12T04:39:47.212Z,9.96
2017-12-12T04:42:14.719Z,9.86
2017-12-12T04:44:42.226Z,9.76
2017-12-12T04:47:09.708Z,9.66
2017-12-12T04:49:37.171Z,9.56
2017-12-12T04:52:04.627Z,9.42
2017-12-12T04:54:32.114Z,9.31
2017-12-12T04:56:59.657Z,9.22
2017-12-12T04:59:27.128Z,9.18
2017-12-12T05:01:54.587Z,9.06
2017-12-12T05:04:22.128Z,8.95
2017-12-12T05:06:50.250Z,8.86
2017-12-12T05:09:17.754Z,8.68
2017-12-12T05:11:45.212Z,8.50
2017-12-12T05:14:12.836Z,8.33
2017-12-12T05:16:40.328Z,8.22
2017-12-12T05:19:07.894Z,8.11
2017-12-12T05:21:35.355Z,8.08
2017-12-12T05:24:02.823Z,8.07
2017-12-12T05:26:30.406Z,8.00
2017-12-12T05:28:57.860Z,7.98
2017-12-12T05:31:25.315Z,7.91
2017-12-12T05:33:52.765Z,7.87
2017-12-12T05:36:20.229Z,7.81
2017-12-12T05:38:47.679Z,7.85
2017-12-12T05:41:15.123Z,7.77
2017-12-12T05:43:42.607Z,7.78
2017-12-12T05:46:10.072Z,7.78
2017-12-12T05:48:37.567Z,7.73
2017-12-12T05:51:05.051Z,7.68
2017-12-12T05:53:32.555Z,7.65
2017-12-12T05:56:00.023Z,7.69
2017-12-12T05:58:27.592Z,7.64
2017-12-12T06:00:55.039Z,7.63
2017-12-12T06:03:22.512Z,7.64
2017-12-12T06:05:50.009Z,7.63
2017-12-12T06:08:17.476Z,7.66
2017-12-12T06:10:44.940Z,7.68
2017-12-12T06:13:12.399Z,7.74
2017-12-12T06:15:39.879Z,7.67
2017-12-12T06:18:07.318Z,7.69
2017-12-12T06:20:34.775Z,7.71
2017-12-12T06:23:02.249Z,7.68
2017-12-12T06:25:29.710Z,7.64
2017-12-12T06:27:57.173Z,7.68
2017-12-12T06:30:24.892Z,7.68
2017-12-12T06:32:52.355Z,7.67
2017-12-12T06:35:19.883Z,7.73
2017-12-12T06:37:47.391Z,7.72
2017-12-12T06:40:14.948Z,7.74
2017-12-12T06:42:42.687Z,7.67
2017-12-12T06:45:10.132Z,7.66
2017-12-12T06:47:37.580Z,7.67
2017-12-12T06:50:05.054Z,7.58
2017-12-12T06:52:33.372Z,7.63
2017-12-12T06:55:00.834Z,7.61
2017-12-12T06:57:28.335Z,7.63
2017-12-12T06:59:55.793Z,7.68
2017-12-12T07:02:23.240Z,7.60
2017-12-12T07:04:50.703Z,7.64
2017-12-12T07:07:18.254Z,7.63
2017-12-12T07:09:45.692Z,7.68
2017-12-12T07:12:13.188Z,7.73
2017-12-12T07:14:40.641Z,7.64
2017-12-12T07:17:08.105Z,7.74
2017-12-12T07:19:35.603Z,7.64
2017-12-12T07:22:03.113Z,7.73
2017-12-12T07:24:30.605Z,7.69
2017-12-12T07:26:58.141Z,7.73
2017-12-12T07:29:25.596Z,7.71
2017-12-12T07:31:53.073Z,7.75
2017-12-12T07:34:20.540Z,7.74
2017-12-12T07:36:48.662Z,7.73
2017-12-12T07:39:16.368Z,7.74
2017-12-12T07:41:43.836Z,7.80
2017-12-12T07:44:11.289Z,7.74
2017-12-12T07:46:38.826Z,7.71
2017-12-12T07:49:06.322Z,7.73
2017-12-12T07:51:33.812Z,7.83
2017-12-12T07:54:01.300Z,7.82
2017-12-12T07:56:28.798Z,7.90
2017-12-12T07:58:56.273Z,7.91
2017-12-12T08:01:23.816Z,7.86
2017-12-12T08:03:51.355Z,7.84
2017-12-12T08:06:18.826Z,7.88
2017-12-12T08:08:46.310Z,7.96
2017-12-12T08:11:13.819Z,8.01
2017-12-12T08:13:41.351Z,8.06
2017-12-12T08:16:08.814Z,8.01
2017-12-12T08:18:36.293Z,8.07
2017-12-12T08:21:03.776Z,8.05
2017-12-12T08:23:31.249Z,8.06
2017-12-12T08:25:58.722Z,8.05
2017-12-12T08:28:26.169Z,8.11
2017-12-12T08:30:53.633Z,8.14
2017-12-12T08:33:21.303Z,8.18
2017-12-12T08:35:48.756Z,8.26
2017-12-12T08:38:16.306Z,8.25
2017-12-12T08:40:43.764Z,8.30
2017-12-12T08:43:11.226Z,8.57
2017-12-12T08:45:38.684Z,8.51
2017-12-12T08:48:06.149Z,8.51
2017-12-12T08:50:33.692Z,8.48
2017-12-12T08:53:01.162Z,8.46
2017-12-12T08:55:28.648Z,8.52
2017-12-12T08:57:56.100Z,8.52
2017-12-12T09:00:23.708Z,8.59
2017-12-12T09:02:51.185Z,8.64
2017-12-12T09:05:18.621Z,8.66
2017-12-12T09:07:46.083Z,8.68
2017-12-12T09:10:15.416Z,8.68
2017-12-12T09:12:43.048Z,8.68
2017-12-12T09:15:10.532Z,8.75
2017-12-12T09:17:38.009Z,8.77
2017-12-12T09:20:05.488Z,8.84
2017-12-12T09:22:32.968Z,8.93
2017-12-12T09:25:00.443Z,8.91
2017-12-12T09:27:28.134Z,8.98
2017-12-12T09:29:55.660Z,9.02
2017-12-12T09:32:23.142Z,9.07
2017-12-12T09:34:50.583Z,9.11
2017-12-12T09:37:18.031Z,9.15
2017-12-12T09:39:45.493Z,9.30
2017-12-12T09:42:12.956Z,9.32
2017-12-12T09:44:40.421Z,9.40
2017-12-12T09:47:07.944Z,9.44
2017-12-12T09:49:35.396Z,9.46
2017-12-12T09:52:02.851Z,9.58
2017-12-12T09:54:30.320Z,9.68
2017-12-12T09:56:57.774Z,9.94
2017-12-12T09:59:25.254Z,10.34
2017-12-12T10:01:52.714Z,10.55
2017-12-12T10:04:20.175Z,10.53
2017-12-12T10:06:47.642Z,10.62
2017-12-12T10:09:15.198Z,10.67
2017-12-12T10:11:42.674Z,10.86
2017-12-12T10:14:10.163Z,10.76
2017-12-12T10:16:37.696Z,10.75
2017-12-12T10:19:05.161Z,10.82
2017-12-12T10:21:32.637Z,10.86
2017-12-12T10:24:00.092Z,10.73
2017-12-12T10:26:27.625Z,10.68
2017-12-12T10:28:55.117Z,10.70
2017-12-12T10:31:22.581Z,10.87
2017-12-12T10:33:50.065Z,10.83
2017-12-12T10:36:17.568Z,10.65
2017-12-12T10:38:45.025Z,10.44
2017-12-12T10:41:12.546Z,10.27
2017-12-12T10:43:40.512Z,10.17
2017-12-12T10:46:08.112Z,10.06
2017-12-12T10:48:35.574Z,10.07
2017-12-12T10:51:03.076Z,10.03
2017-12-12T10:53:30.567Z,9.92
2017-12-12T10:55:58.072Z,10.05
2017-12-12T10:58:25.552Z,10.01
2017-12-12T11:00:53.059Z,10.08
2017-12-12T11:03:20.527Z,10.17
2017-12-12T11:05:48.003Z,10.04
2017-12-12T11:08:15.533Z,10.04
2017-12-12T11:10:43.001Z,10.03
2017-12-12T11:13:10.495Z,10.06
2017-12-12T11:15:37.962Z,10.05
2017-12-12T11:18:05.426Z,10.16
2017-12-12T11:20:32.889Z,10.05
2017-12-12T11:23:00.374Z,10.02
2017-12-12T11:25:27.901Z,10.08
2017-12-12T11:27:56.108Z,10.10
2017-12-12T11:30:23.770Z,10.27
2017-12-12T11:32:51.346Z,10.23
2017-12-12T11:35:18.832Z,10.25
2017-12-12T11:37:46.320Z,10.34
2017-12-12T11:40:13.992Z,10.28
2017-12-12T11:42:41.646Z,10.20
2017-12-12T11:45:09.183Z,10.20
2017-12-12T11:47:36.694Z,10.11
2017-12-12T11:50:04.182Z,10.20
2017-12-12T11:52:31.682Z,10.12
2017-12-12T11:54:59.173Z,10.25
2017-12-12T11:57:26.692Z,10.13
2017-12-12T11:59:54.163Z,10.04
2017-12-12T12:02:23.395Z,10.07
2017-12-12T12:04:50.884Z,10.04
2017-12-12T12:07:18.429Z,10.02
2017-12-12T12:09:45.962Z,10.02
2017-12-12T12:12:13.447Z,9.98
2017-12-12T12:14:40.916Z,9.97
2017-12-12T12:17:08.410Z,9.84
2017-12-12T12:19:35.887Z,9.95
2017-12-12T12:22:03.356Z,9.85
2017-12-12T12:24:30.892Z,9.78
2017-12-12T12:26:58.366Z,9.91
2017-12-12T12:29:25.825Z,9.73
2017-12-12T12:31:53.316Z,9.58
2017-12-12T12:34:20.785Z,9.54
2017-12-12T12:36:48.294Z,9.46
2017-12-12T12:39:15.971Z,9.36
2017-12-12T12:41:43.428Z,9.35
2017-12-12T12:44:10.961Z,9.42
2017-12-12T12:46:38.456Z,9.28
2017-12-12T12:49:05.965Z,9.18
2017-12-12T12:51:33.484Z,9.18
2017-12-12T12:54:01.049Z,9.19
2017-12-12T12:56:28.588Z,9.16
2017-12-12T12:58:56.077Z,9.23
2017-12-12T13:01:23.520Z,9.25
2017-12-12T13:03:50.995Z,9.13
2017-12-12T13:06:18.477Z,9.03
2017-12-12T13:08:45.918Z,9.06
2017-12-12T13:11:13.400Z,8.98
2017-12-12T13:13:40.871Z,8.95
2017-12-12T13:16:08.340Z,8.86
2017-12-12T13:18:35.810Z,8.69
2017-12-12T13:21:03.271Z,8.43
2017-12-12T13:23:30.744Z,8.33
2017-12-12T13:25:58.228Z,8.28
2017-12-12T13:28:25.678Z,8.28
2017-12-12T13:30:53.160Z,8.29
2017-12-12T13:33:20.620Z,8.18
2017-12-12T13:35:48.140Z,7.98
2017-12-12T13:38:15.819Z,8.05
2017-12-12T13:40:43.298Z,8.02
2017-12-12T13:43:10.787Z,7.92
2017-12-12T13:45:38.242Z,7.95
2017-12-12T13:48:05.704Z,7.74
2017-12-12T13:50:33.901Z,7.73
2017-12-12T13:53:01.365Z,7.58
2017-12-12T13:55:28.844Z,7.54
2017-12-12T13:57:56.330Z,7.39
2017-12-12T14:00:23.952Z,7.50
2017-12-12T14:02:51.448Z,7.44
2017-12-12T14:05:18.934Z,7.36
2017-12-12T14:07:46.456Z,7.31
2017-12-12T14:10:13.991Z,7.30
2017-12-12T14:12:41.815Z,7.33
2017-12-12T14:15:09.315Z,7.25
2017-12-12T14:17:36.772Z,7.22
2017-12-12T14:20:04.241Z,7.12
2017-12-12T14:22:31.756Z,7.02
2017-12-12T14:24:59.222Z,7.02
2017-12-12T14:27:26.667Z,7.01
2017-12-12T14:29:54.122Z,6.99
2017-12-12T14:32:21.592Z,7.05
2017-12-12T14:34:49.041Z,6.95
2017-12-12T14:37:16.489Z,6.93
2017-12-12T14:39:43.965Z,6.97
2017-12-12T14:42:11.457Z,7.00
2017-12-12T14:44:38.893Z,6.81
2017-12-12T14:47:06.355Z,6.91
2017-12-12T14:49:33.816Z,6.90
2017-12-12T14:52:01.265Z,6.86
2017-12-12T14:54:28.729Z,6.84
2017-12-12T14:56:56.184Z,6.81
2017-12-12T14:59:23.641Z,6.85
2017-12-12T15:01:51.097Z,6.81
2017-12-12T15:04:18.636Z,6.83
2017-12-12T15:06:46.116Z,6.75
2017-12-12T15:09:13.633Z,6.78
2017-12-12T15:11:41.100Z,6.73
2017-12-12T15:14:08.567Z,6.64
2017-12-12T15:16:36.082Z,6.64
2017-12-12T15:19:03.560Z,6.68
2017-12-12T15:21:31.024Z,6.59
2017-12-12T15:23:58.503Z,6.55
2017-12-12T15:26:26.025Z,6.52
2017-12-12T15:28:53.485Z,6.57
2017-12-12T15:31:20.986Z,6.50
2017-12-12T15:33:48.448Z,6.51
2017-12-12T15:36:15.917Z,6.51
2017-12-12T15:38:43.382Z,6.49
2017-12-12T15:41:11.789Z,6.43
2017-12-12T15:43:39.264Z,6.45
2017-12-12T15:46:06.745Z,6.44
2017-12-12T15:48:34.220Z,6.52
2017-12-12T15:51:01.697Z,6.47
2017-12-12T15:53:29.156Z,6.56
2017-12-12T15:55:56.656Z,6.44
2017-12-12T15:58:24.127Z,6.35
2017-12-12T16:00:51.582Z,6.39
2017-12-12T16:03:19.049Z,6.42
2017-12-12T16:05:46.516Z,6.33
2017-12-12T16:08:14.262Z,6.31
2017-12-12T16:10:41.725Z,6.28
2017-12-12T16:13:09.206Z,6.28
2017-12-12T16:15:36.659Z,6.27
2017-12-12T16:18:04.248Z,6.24
2017-12-12T16:20:31.747Z,6.27
2017-12-12T16:22:59.240Z,6.23
2017-12-12T16:25:26.754Z,6.20
2017-12-12T16:27:54.698Z,6.24
2017-12-12T16:30:22.199Z,6.18
2017-12-12T16:32:49.675Z,6.27
2017-12-12T16:35:17.142Z,6.22
2017-12-12T16:37:44.632Z,6.24
2017-12-12T16:40:12.126Z,6.30
2017-12-12T16:42:39.992Z,6.33
2017-12-12T16:45:07.459Z,6.28
2017-12-12T16:47:35.022Z,6.26
2017-12-12T16:50:02.502Z,6.28
2017-12-12T16:52:30.243Z,6.30
2017-12-12T16:54:57.732Z,6.24
2017-12-12T16:57:25.224Z,6.25
2017-12-12T16:59:52.676Z,6.20
2017-12-12T17:02:20.335Z,6.18
2017-12-12T17:04:47.807Z,6.17
2017-12-12T17:07:15.258Z,6.12
2017-12-12T17:09:42.720Z,6.12
2017-12-12T17:12:10.180Z,6.09
2017-12-12T17:14:37.633Z,6.11
2017-12-12T17:17:05.093Z,6.11
2017-12-12T17:19:32.621Z,6.09
2017-12-12T17:22:00.101Z,6.06
2017-12-12T17:24:27.655Z,6.14
2017-12-12T17:26:55.129Z,6.09
2017-12-12T17:29:22.599Z,6.14
2017-12-12T17:31:50.093Z,6.13
2017-12-12T17:34:17.572Z,6.04
2017-12-12T17:36:45.072Z,6.07
2017-12-12T17:39:12.544Z,6.06
2017-12-12T17:41:40.044Z,6.04
2017-12-12T17:44:07.493Z,6.07
2017-12-12T17:46:34.944Z,6.09
2017-12-12T17:49:02.473Z,6.06
2017-12-12T17:51:29.954Z,6.08
2017-12-12T17:53:57.417Z,6.03
2017-12-12T17:56:24.914Z,6.04
2017-12-12T17:58:52.373Z,6.08
2017-12-12T18:01:19.876Z,6.02
2017-12-12T18:03:47.330Z,6.02
2017-12-12T18:06:14.913Z,6.06
2017-12-12T18:08:42.417Z,6.05
2017-12-12T18:11:09.948Z,6.05
2017-12-12T18:13:37.451Z,6.01
2017-12-12T18:16:04.933Z,6.10
2017-12-12T18:18:32.392Z,6.06
2017-12-12T18:20:59.884Z,6.04
2017-12-12T18:23:27.441Z,6.13
2017-12-12T18:25:54.903Z,6.13
2017-12-12T18:28:22.372Z,6.08
2017-12-12T18:30:49.841Z,6.18
2017-12-12T18:33:17.308Z,6.20
2017-12-12T18:35:44.774Z,6.20
2017-12-12T18:38:12.254Z,6.16
2017-12-12T18:40:39.765Z,6.18
2017-12-12T18:43:07.244Z,6.14
2017-12-12T18:45:34.748Z,6.09
2017-12-12T18:48:02.343Z,6.15
2017-12-12T18:50:29.836Z,6.11
2017-12-12T18:52:57.429Z,6.13
2017-12-12T18:55:25.039Z,6.09
2017-12-12T18:57:52.592Z,6.18
2017-12-12T19:00:20.434Z,6.13
2017-12-12T19:02:48.259Z,6.07
2017-12-12T19:05:15.908Z,6.09
2017-12-12T19:07:44.765Z,6.13
2017-12-12T19:10:12.597Z,6.04
2017-12-12T19:12:40.454Z,6.05
2017-12-12T19:15:18.828Z,6.06
2017-12-12T19:17:46.841Z,6.05
2017-12-12T19:20:14.700Z,5.97
2017-12-12T19:22:42.407Z,5.98
2017-12-12T19:25:10.094Z,5.92
2017-12-12T19:27:37.839Z,5.91
2017-12-12T19:30:05.608Z,5.87
2017-12-12T19:32:33.455Z,5.94
2017-12-12T19:35:01.319Z,6.01
2017-12-12T19:37:29.103Z,5.97
2017-12-12T19:39:56.915Z,5.87
2017-12-12T19:42:25.136Z,5.83
2017-12-12T19:44:52.949Z,5.78
2017-12-12T19:47:21.056Z,5.82
2017-12-12T19:49:48.895Z,5.82
2017-12-12T19:52:16.532Z,5.69
2017-12-12T19:54:44.627Z,5.73
2017-12-12T19:57:12.331Z,5.71
2017-12-12T19:59:40.168Z,5.75
2017-12-12T20:02:07.985Z,5.68
2017-12-12T20:04:36.657Z,5.65
2017-12-12T20:07:04.560Z,5.65
2017-12-12T20:09:32.479Z,5.62
2017-12-12T20:12:00.343Z,5.65
2017-12-12T20:14:28.214Z,5.74
2017-12-12T20:16:56.611Z,5.76
2017-12-12T20:19:25.632Z,5.71
2017-12-12T20:21:53.558Z,5.68
2017-12-12T20:24:21.591Z,5.59
2017-12-12T20:26:49.305Z,5.53
2017-12-12T20:29:17.031Z,5.60
2017-12-12T20:31:44.772Z,5.56
2017-12-12T20:34:12.576Z,5.61
2017-12-12T20:36:40.688Z,5.48
2017-12-12T20:39:08.427Z,5.52
2017-12-12T20:41:36.153Z,5.52
2017-12-12T20:44:03.962Z,5.50
2017-12-12T20:46:31.733Z,5.41
2017-12-12T20:48:59.603Z,5.42
2017-12-12T20:51:27.426Z,5.46
2017-12-12T20:53:55.462Z,5.59
2017-12-12T20:56:23.454Z,5.48
2017-12-12T20:58:51.279Z,5.47
2017-12-12T21:01:19.022Z,5.46
2017-12-12T21:03:46.827Z,5.49
2017-12-12T21:06:14.399Z,5.46
2017-12-12T21:08:42.051Z,5.36
2017-12-12T21:11:09.640Z,5.31
2017-12-12T21:13:37.345Z,5.34
2017-12-12T21:16:05.252Z,5.34
2017-12-12T21:18:32.886Z,5.23
2017-12-12T21:21:00.434Z,5.29
2017-12-12T21:23:27.965Z,5.47
2017-12-12T21:25:55.549Z,5.37
2017-12-12T21:28:23.118Z,5.33
2017-12-12T21:30:50.691Z,5.23
2017-12-12T21:33:20.408Z,5.26
2017-12-12T21:35:47.934Z,5.18
2017-12-12T21:38:15.850Z,5.18
2017-12-12T21:40:43.342Z,5.09
2017-12-12T21:43:10.818Z,5.04
2017-12-12T21:45:38.303Z,5.01
2017-12-12T21:48:05.766Z,5.07
2017-12-12T21:50:33.251Z,5.00
2017-12-12T21:53:00.763Z,5.05
2017-12-12T21:55:28.518Z,4.98
2017-12-12T21:57:56.026Z,4.99
2017-12-12T22:00:23.608Z,4.96
2017-12-12T22:02:51.072Z,5.03
2017-12-12T22:05:18.552Z,5.07
2017-12-12T22:07:45.995Z,4.96
2017-12-12T22:10:13.479Z,4.95
2017-12-12T22:12:41.051Z,4.99
2017-12-12T22:15:08.534Z,4.93
2017-12-12T22:17:36.037Z,4.91
2017-12-12T22:20:03.540Z,4.96
2017-12-12T22:22:30.998Z,4.83
2017-12-12T22:24:58.485Z,4.82
2017-12-12T22:27:25.941Z,4.85
2017-12-12T22:29:53.390Z,5.05
2017-12-12T22:32:21.006Z,4.96
2017-12-12T22:34:51.922Z,4.92
2017-12-12T22:37:19.421Z,4.96
2017-12-12T22:39:46.945Z,4.91
2017-12-12T22:42:14.430Z,4.90
2017-12-12T22:44:41.914Z,4.89
2017-12-12T22:47:09.374Z,4.82
2017-12-12T22:49:36.864Z,4.85
2017-12-12T22:52:04.312Z,4.82
2017-12-12T22:54:31.800Z,4.79
2017-12-12T22:56:59.251Z,4.77
2017-12-12T22:59:27.810Z,4.77
2017-12-12T23:01:55.323Z,4.80
2017-12-12T23:04:22.783Z,4.80
2017-12-12T23:06:50.237Z,4.94
2017-12-12T23:09:17.740Z,4.98
2017-12-12T23:11:45.191Z,4.91
2017-12-12T23:14:12.704Z,4.93
2017-12-12T23:16:40.992Z,4.81
2017-12-12T23:19:08.460Z,4.79
2017-12-12T23:21:38.618Z,4.74
2017-12-12T23:24:06.151Z,4.85
2017-12-12T23:26:35.207Z,4.83
2017-12-12T23:29:02.796Z,4.83
2017-12-12T23:31:30.288Z,4.81
2017-12-12T23:33:57.756Z,4.78
2017-12-12T23:36:25.388Z,4.80
2017-12-12T23:38:52.852Z,4.90
2017-12-12T23:41:20.292Z,4.84
2017-12-12T23:43:47.777Z,4.83
2017-12-12T23:46:15.331Z,4.85
2017-12-12T23:48:42.788Z,4.97
2017-12-12T23:51:10.242Z,4.90
2017-12-12T23:53:37.719Z,4.89
2017-12-12T23:56:05.173Z,4.87
2017-12-12T23:58:32.740Z,4.85
